CheckWX is a tool to help pilots better visualize weather data.  It is not intended as a substitute for an official pre-flight weather briefing.

00:36:24 UTC

KAUG TAF
Augusta State Airport
Augusta, Maine, USA
KAUG 182328Z 1900/1924 29009KT P6SM SCT035

Oct-19@
00:00 UTC

Oct-19 @ 00:00 UTC

Oct-20@
00:00 UTC

Oct-20 @ 00:00 UTC

KAUG 182328Z 1900/1924 29009KT P6SM SCT035
Wind
  • 290° at 9 KTS
Cloud Levels
  • Scattered at 3,500' AGL